Terminal Aerodrome Forecast
Issued by NWS Greer, SC

Home | Current Version | Previous Version | Text Only | Print | Product List | Glossary On
Versions: 1 2 3 4 5 6 7 8 9 10 11 12 13 14 15 16 17 18 19 20 21 22 23 24 25 26 27 28 29 30 31 32 33 34 35 36
078
FTUS42 KGSP 261734
TAFAVL
TAF
KAVL 261734Z 2618/2718 34009G16KT P6SM SKC
     FM262200 35005KT P6SM FEW250
     FM270200 16003KT P6SM SCT150
     FM271400 16007KT P6SM BKN120=

USA.gov is the U.S. government's official web portal to all federal, state and local government web resources and services.